Date,TemperatureHighF,TemperatureAvgF,TemperatureLowF,DewpointHighF,DewpointAvgF,DewpointLowF,HumidityHigh,HumidityAvg,HumidityLow,PressureMaxIn,PressureMinIn,WindSpeedMaxMPH,WindSpeedAvgMPH,GustSpeedMaxMPH,PrecipitationSumIn
2013-1-1,30,28,26,23,22,16,83,77,58,29.68,29.60,11,1,15,0.00
2013-1-2,23,13,5,10,0,-8,88,58,45,30.04,29.84,16,1,16,0.00
2013-1-3,23,10,1,6,-1,-8,76,61,42,30.09,29.94,10,0,10,0.00
2013-1-4,32,19,1,24,13,-4,86,75,66,29.94,29.71,12,1,12,0.00
2013-1-5,35,31,27,24,21,15,79,67,45,30.07,29.72,18,1,18,0.01
2013-1-6,35,24,14,24,17,8,84,76,62,30.22,29.89,1,0,6,0.04
2013-1-7,30,22,12,22,14,8,85,73,57,30.39,29.92,10,1,10,0.00
2013-1-8,42,29,12,26,21,8,86,72,50,30.34,30.17,13,1,13,0.09
2013-1-9,36,29,16,29,24,12,87,79,65,30.40,29.87,4,0,4,0.02
2013-1-10,43,37,28,30,25,20,82,64,50,30.51,29.89,21,2,21,0.03
2013-1-11,34,29,21,28,22,16,85,74,55,30.52,30.26,5,0,5,0.00
2013-1-12,39,35,32,36,32,29,91,90,88,30.24,30.09,0,0,3,0.07
2013-1-13,40,37,35,38,35,33,92,92,91,30.14,29.93,1,0,6,0.01
2013-1-14,58,43,33,52,36,25,93,77,57,30.19,29.83,9,0,9,0.00
2013-1-15,38,33,27,27,24,21,86,72,54,30.30,30.19,6,0,6,0.00
2013-1-16,31,29,28,28,26,20,89,87,67,30.25,29.77,3,0,4,0.00
2013-1-17,40,29,17,32,18,1,90,66,41,30.11,29.75,16,1,16,0.34
2013-1-18,18,14,8,3,-3,-9,60,47,35,30.33,30.08,11,2,11,0.00
2013-1-19,38,29,12,27,18,2,77,63,53,30.35,29.86,2,1,14,0.03
2013-1-20,47,37,28,31,24,10,85,61,42,29.84,29.43,5,2,28,0.07
2013-1-21,27,22,15,12,6,1,67,50,35,30.03,29.82,3,1,17,0.00
2013-1-22,20,14,8,10,3,-8,73,59,46,30.03,29.75,9,1,9,0.00
2013-1-23,8,3,-3,-8,-13,-16,59,47,36,30.09,30.01,16,1,16,0.00
2013-1-24,14,7,-6,-5,-9,-16,64,48,35,30.13,29.94,16,2,16,0.00
2013-1-25,20,11,0,2,-2,-9,71,54,42,30.21,30.06,5,1,11,0.00
2013-1-26,21,15,9,1,-1,-4,59,49,36,30.13,29.97,3,2,16,0.00
2013-1-27,25,16,10,3,0,-3,58,48,36,30.41,30.13,3,1,15,0.00
2013-1-28,26,18,10,11,1,-4,61,48,33,30.42,30.21,4,0,6,0.00
2013-1-29,32,30,30,27,25,22,87,81,73,30.17,30.13,3,0,4,0.09
2013-1-30,47,36,31,44,34,27,93,91,87,30.13,29.43,5,0,12,0.42
2013-1-31,52,41,30,50,30,13,93,66,46,29.45,28.84,26,5,26,0.14
2013-2-1,30,25,17,16,9,3,61,50,38,30.02,29.45,18,2,18,0.00
2013-2-2,17,13,10,5,3,2,74,65,53,30.19,30.02,3,0,4,0.00
2013-2-3,28,24,20,16,14,12,76,66,54,30.03,29.68,10,2,10,0.00
2013-2-4,28,24,16,14,6,0,74,48,35,29.86,29.63,19,2,19,0.00
2013-2-5,24,16,7,9,4,-1,74,57,36,30.01,29.85,10,0,10,0.00
2013-2-6,37,24,15,24,11,-3,72,58,35,30.27,29.90,22,1,22,0.00
2013-2-7,22,16,11,0,-3,-6,52,42,31,30.56,30.27,11,1,11,0.00
2013-2-8,14,12,9,9,4,-6,84,73,42,30.55,29.86,19,2,19,0.00
2013-2-9,19,14,10,14,10,6,85,83,78,30.09,29.65,27,5,27,0.00
2013-2-10,34,19,4,12,7,-1,79,61,32,30.34,30.09,11,1,11,0.08
2013-2-11,38,22,8,35,17,1,91,81,66,30.33,29.56,6,0,6,0.01
2013-2-12,45,37,29,33,28,25,91,72,55,29.76,29.51,17,1,17,0.12
2013-2-13,43,35,29,28,25,23,85,69,47,29.80,29.72,6,0,9,0.00
2013-2-14,40,33,26,24,22,19,79,64,45,29.98,29.69,10,1,10,0.00
2013-2-15,43,30,22,34,25,18,87,79,67,29.98,29.88,12,0,13,0.00
2013-2-16,36,32,29,31,27,15,89,81,54,29.92,29.76,3,1,12,0.02
2013-2-17,28,22,19,16,11,4,83,64,50,29.75,29.18,6,4,29,0.00
2013-2-18,31,22,15,10,4,1,54,46,33,30.03,29.46,7,3,29,0.00
2013-2-19,35,27,14,21,10,0,62,48,35,30.09,29.99,6,1,6,0.00
2013-2-20,42,34,28,40,26,17,91,73,56,29.62,29.41,3,2,18,0.05
2013-2-21,28,27,22,19,16,9,71,63,52,30.13,29.63,14,2,14,0.00
2013-2-22,38,31,23,23,20,17,78,65,48,30.38,30.13,12,1,12,0.00
2013-2-23,36,32,28,32,26,21,89,81,74,30.34,30.01,2,0,9,0.05
2013-2-24,32,30,29,30,28,26,90,90,89,29.99,29.76,1,0,5,0.01
2013-2-25,40,32,25,31,27,22,90,83,64,30.23,29.89,6,0,6,0.46
2013-2-26,42,34,29,32,28,26,90,79,59,30.35,30.23,6,0,6,0.00
2013-2-27,33,31,29,29,28,26,88,85,81,30.23,30.13,4,0,4,0.00
2013-2-28,38,35,32,36,32,29,92,91,88,29.64,29.52,6,0,9,0.77
2013-3-1,35,33,32,30,29,27,90,83,75,29.66,29.52,11,1,11,0.06
2013-3-2,41,35,30,30,29,28,90,81,60,29.64,29.58,14,1,14,0.09
2013-3-3,42,37,31,32,28,26,90,70,62,29.60,29.51,12,1,13,0.09
2013-3-4,37,33,32,28,25,22,81,72,63,29.67,29.49,16,2,18,0.00
2013-3-5,43,39,32,33,31,23,82,74,64,30.10,29.67,16,2,16,0.00
2013-3-6,38,36,32,32,29,26,92,78,65,30.23,30.10,15,3,16,0.00
2013-3-7,36,34,31,26,24,23,79,68,62,30.19,30.06,18,5,19,0.00
2013-3-8,46,36,29,26,24,21,87,62,41,30.18,30.01,19,5,19,0.02
2013-3-9,48,36,30,25,23,20,68,58,37,30.25,30.17,15,3,18,0.00
2013-3-10,39,32,23,30,26,20,87,77,67,30.42,30.30,3,1,10,0.01
2013-3-11,42,39,34,37,34,30,88,82,71,30.30,30.13,13,2,13,0.00
2013-3-12,48,43,38,46,40,36,92,90,86,30.15,29.72,21,1,21,0.68
2013-3-13,50,42,31,43,36,26,92,80,59,29.73,29.65,11,1,16,0.02
2013-3-14,39,32,22,26,21,6,88,64,47,29.74,29.60,16,2,16,0.00
2013-3-15,34,26,17,21,11,5,71,53,38,29.80,29.58,17,2,17,0.00
2013-3-16,36,32,23,23,14,12,81,49,37,29.88,29.60,12,2,13,0.00
2013-3-17,33,26,18,14,10,4,77,52,33,30.20,29.88,20,2,20,0.00
2013-3-18,26,18,13,4,3,2,64,51,37,30.44,30.30,9,1,12,0.00
2013-3-19,33,28,23,28,25,20,90,88,61,30.26,29.65,12,1,12,0.02
2013-3-20,36,28,18,25,21,14,95,75,53,29.71,29.60,15,1,15,0.31
2013-3-21,37,29,20,23,19,14,83,66,42,29.76,29.59,11,1,11,0.22
2013-3-22,40,30,22,22,18,16,81,63,41,29.64,29.57,18,1,18,0.00
2013-3-23,40,32,24,23,20,15,76,61,45,29.65,29.49,5,2,22,0.00
2013-3-24,46,37,30,28,24,22,72,60,44,29.77,29.65,3,2,17,0.00
2013-3-25,33,29,27,26,24,22,82,79,72,29.76,29.72,3,0,6,0.00
2013-3-26,47,39,31,27,25,23,71,56,42,29.72,29.55,12,1,14,0.00
2013-3-27,49,36,28,35,29,22,89,76,47,29.85,29.70,9,1,12,0.12
2013-3-28,49,40,34,36,32,29,90,75,51,29.96,29.85,9,1,9,0.01
2013-3-29,55,42,33,36,31,28,84,66,42,30.00,29.92,13,1,14,0.00
2013-3-30,52,39,32,32,29,25,83,69,34,30.04,29.99,11,1,11,0.00
2013-3-31,48,39,26,38,28,20,78,66,38,30.10,29.84,4,1,15,0.00
2013-4-1,54,42,36,42,38,21,91,85,53,29.83,29.47,11,2,16,0.61
2013-4-2,38,33,26,19,13,10,69,44,33,29.82,29.67,21,2,21,1.22
2013-4-3,43,33,28,19,14,10,66,48,28,29.85,29.80,26,2,28,0.00
2013-4-4,52,41,27,32,22,12,78,49,24,30.20,29.94,14,2,16,0.00
2013-4-5,52,43,36,36,28,23,69,57,39,29.95,29.61,19,2,19,0.00
2013-4-6,41,32,27,24,14,7,59,49,27,30.33,29.81,13,2,20,0.00
2013-4-7,45,39,26,34,28,13,71,64,54,30.33,30.04,18,3,18,0.00
2013-4-8,60,48,38,39,36,34,86,66,38,30.11,29.88,3,1,14,0.00
2013-4-9,49,44,39,44,40,33,90,84,77,30.10,29.87,6,1,9,0.43
2013-4-10,42,41,40,40,39,38,95,91,90,29.99,29.93,5,0,5,0.21
2013-4-11,54,46,40,41,25,18,92,45,30,30.17,29.85,10,2,10,0.04
2013-4-12,40,39,37,20,19,17,47,44,40,30.21,30.17,11,3,11,0.00
2013-4-13,47,38,33,38,34,30,91,83,65,29.90,29.79,2,1,9,0.12
2013-4-14,40,38,37,37,35,34,90,89,87,29.92,29.88,0,0,5,0.00
2013-4-15,52,42,31,40,34,28,87,75,55,30.40,30.17,4,1,13,0.00
2013-4-16,50,47,37,45,40,35,90,77,70,30.40,29.94,21,3,22,0.12
2013-4-17,61,54,42,50,34,28,88,49,31,30.33,29.94,17,2,17,0.00
2013-4-18,47,42,32,39,32,25,78,68,47,30.47,30.16,13,1,13,0.00
2013-4-19,50,46,45,47,42,39,91,86,78,30.17,29.95,10,1,10,0.00
2013-4-20,56,52,44,54,40,25,92,67,39,30.12,29.56,5,2,19,0.20
2013-4-21,52,44,34,27,24,20,66,45,31,30.69,30.14,15,2,15,0.00
2013-4-22,48,39,29,35,26,20,80,61,35,30.80,30.64,15,1,15,0.00
2013-4-23,43,38,30,39,33,26,89,83,75,30.64,30.18,9,1,11,0.01
2013-4-24,63,48,42,51,43,38,90,83,63,30.19,29.75,15,2,15,0.03
2013-4-25,63,55,44,46,37,29,91,53,35,30.27,29.76,12,2,18,0.03
2013-4-26,54,45,33,37,32,27,82,61,44,30.43,30.27,13,1,13,0.00
2013-4-27,56,45,33,43,37,30,87,75,52,30.41,30.30,3,1,13,0.00
2013-4-28,58,48,34,42,37,31,89,68,48,30.33,30.25,3,1,10,0.00
2013-4-29,58,48,37,46,40,33,87,75,60,30.26,30.20,3,1,15,0.00
2013-4-30,62,52,37,46,38,31,89,63,33,30.37,30.24,11,1,11,0.00
2013-5-1,61,47,34,40,36,30,88,67,38,30.45,30.36,13,1,13,0.00
2013-5-2,62,48,38,49,39,34,87,72,47,30.52,30.39,15,1,15,0.00
2013-5-3,57,47,35,43,39,31,86,73,57,30.54,30.37,10,1,10,0.00
2013-5-4,54,46,37,42,39,34,90,76,62,30.40,30.32,12,1,12,0.00
2013-5-5,55,46,32,43,37,29,89,74,53,30.34,30.25,5,2,16,0.00
2013-5-6,57,49,36,46,43,33,91,80,61,30.27,30.17,15,2,15,0.00
2013-5-7,63,52,45,52,47,42,92,84,66,30.18,30.09,14,1,14,0.00
2013-5-8,66,57,45,58,52,42,91,84,74,30.23,30.11,10,1,10,0.01
2013-5-9,61,54,51,57,52,49,92,90,84,30.11,29.89,9,0,9,0.65
2013-5-10,64,55,50,58,52,48,93,89,76,29.97,29.88,12,1,12,0.16
2013-5-11,61,55,51,56,53,49,92,90,83,29.92,29.68,5,1,18,0.20
2013-5-12,69,58,47,58,50,38,93,77,46,29.72,29.52,10,1,19,0.06
2013-5-13,57,48,39,40,32,30,77,55,37,29.90,29.72,23,2,23,0.00
2013-5-14,58,51,41,40,35,30,77,55,36,30.02,29.93,12,1,13,0.00
2013-5-15,52,43,39,36,34,31,79,71,47,30.01,29.98,5,0,5,0.00
2013-5-16,79,67,49,56,46,41,92,52,27,29.78,29.54,19,2,19,0.00
2013-5-17,67,58,48,44,41,37,75,56,37,30.20,29.77,15,1,15,0.00
2013-5-18,59,51,41,45,42,37,88,73,53,30.33,30.19,12,1,12,0.00
2013-5-19,59,51,47,49,46,43,92,82,67,30.36,30.22,13,1,13,0.10
2013-5-20,67,57,50,60,54,48,95,88,76,30.23,29.90,9,0,9,0.48
2013-5-21,55,52,49,52,48,46,92,88,85,30.11,29.97,10,1,10,0.10
2013-5-22,56,51,49,51,48,47,92,89,82,29.99,29.90,6,0,10,0.31
2013-5-23,61,56,49,59,52,46,92,88,82,29.95,29.80,13,1,13,0.08
2013-5-24,62,58,50,60,56,47,93,92,88,29.82,29.63,7,1,14,0.95
2013-5-25,51,48,46,48,45,43,92,91,88,29.82,29.63,13,2,13,0.51
2013-5-26,50,46,45,45,43,42,92,91,82,29.69,29.59,13,2,13,0.07
2013-5-27,69,59,40,43,38,35,85,49,33,30.14,29.97,18,3,18,0.00
2013-5-28,69,59,40,47,43,37,89,59,37,30.23,30.15,14,1,14,0.00
2013-5-29,50,49,48,46,45,45,88,88,86,30.19,30.17,1,0,1,0.00
2013-5-30,80,66,54,66,59,51,93,79,57,30.01,29.94,10,0,10,0.00
2013-5-31,93,73,58,70,63,56,92,72,44,30.04,29.87,12,0,12,0.00
2013-6-1,86,73,62,70,63,58,90,72,51,29.90,29.79,13,1,13,0.00
2013-6-2,77,70,64,66,63,60,92,79,64,29.81,29.67,16,1,16,0.24
2013-6-3,73,65,58,66,61,54,93,88,76,29.81,29.69,11,1,11,0.07
2013-6-4,66,60,50,54,47,42,90,65,44,29.96,29.76,12,1,13,0.00
2013-6-5,69,61,49,50,45,39,83,58,36,30.16,30.05,12,2,12,0.00
2013-6-6,67,58,51,54,49,44,87,74,46,30.21,30.13,10,1,12,0.00
2013-6-7,60,56,52,53,50,46,91,82,61,30.14,29.92,6,0,6,0.62
2013-6-8,72,59,54,61,55,51,92,85,64,29.96,29.62,13,1,13,1.04
2013-6-9,70,60,58,60,57,55,92,89,71,30.13,29.96,3,0,10,0.00
2013-6-10,66,62,53,56,54,50,90,76,66,30.21,30.09,9,1,9,0.00
2013-6-11,57,55,54,54,52,52,92,90,87,29.93,29.54,17,1,17,0.89
2013-6-12,62,58,54,57,54,52,92,88,81,29.76,29.51,11,1,11,0.19
2013-6-13,70,60,51,56,53,48,92,78,58,29.79,29.72,7,0,7,0.00
2013-6-14,74,61,54,57,54,51,91,79,48,29.74,29.64,12,0,12,0.01
2013-6-15,77,62,50,51,48,44,91,65,33,29.88,29.72,11,1,11,0.01
2013-6-16,74,61,51,59,53,46,87,76,54,29.89,29.69,9,0,9,0.00
2013-6-17,82,67,56,64,58,52,92,74,45,29.85,29.71,13,1,13,0.01
2013-6-18,68,61,57,58,56,53,91,82,61,29.98,29.83,5,0,5,0.11
2013-6-19,76,63,52,56,51,46,91,68,38,30.13,29.91,10,1,10,0.00
2013-6-20,74,58,50,53,48,44,83,70,43,30.24,30.13,5,0,5,0.00
2013-6-21,77,69,56,60,57,53,89,67,48,30.22,30.16,9,1,9,0.00
2013-6-22,75,66,59,65,60,55,91,81,63,30.19,30.09,4,0,9,0.01
2013-6-23,65,64,63,62,61,60,91,91,89,30.13,30.09,4,0,4,0.34
2013-6-24,91,81,69,74,69,65,93,69,50,29.90,29.80,12,1,12,0.01
2013-6-25,86,75,67,73,67,64,88,77,63,29.86,29.69,7,0,7,0.01
2013-6-26,79,69,59,69,64,56,91,85,72,29.89,29.68,12,0,12,0.07
2013-6-27,59,58,58,56,55,55,91,90,90,29.88,29.81,2,0,2,0.01
2013-6-28,64,59,0,62,57,0,93,90,90,29.83,29.53,5,0,7,0.35
2013-6-29,70,65,61,66,62,59,94,90,82,29.68,29.53,17,1,17,0.02
2013-6-30,80,69,62,70,64,60,93,84,71,29.92,29.68,7,1,7,0.00
2013-7-1,74,67,64,68,64,61,93,89,79,30.09,29.92,2,0,4,0.33
2013-7-2,66,62,59,64,60,56,93,92,90,30.22,30.06,9,0,9,0.16
2013-7-3,72,63,59,65,60,56,95,89,77,30.20,30.08,5,0,6,0.07
2013-7-4,86,70,62,74,65,59,93,85,67,30.16,30.11,5,0,5,0.00
2013-7-5,92,82,70,76,72,67,92,73,53,30.11,29.97,14,1,14,0.00
2013-7-6,89,80,70,74,70,64,91,74,52,30.01,29.91,10,1,10,0.00
2013-7-7,70,70,69,64,63,62,82,79,76,29.97,29.94,2,0,2,0.00
2013-7-8,76,70,65,71,64,60,92,81,64,30.08,29.89,5,0,6,0.53
2013-7-9,71,66,63,65,62,60,92,86,78,30.12,30.06,8,0,8,0.06
2013-7-10,67,64,61,64,61,58,93,90,87,30.09,29.76,6,0,6,0.09
2013-7-11,81,71,66,73,67,64,94,89,67,29.95,29.73,4,0,5,0.01
2013-7-12,78,72,64,65,61,57,86,68,55,30.14,29.95,6,1,6,0.00
2013-7-13,79,69,59,63,60,56,90,75,55,30.31,30.21,1,0,6,0.00
2013-7-14,86,75,63,72,66,60,90,75,57,30.28,30.17,2,0,9,0.00
2013-7-15,93,83,68,72,69,65,91,65,44,30.17,30.04,10,1,10,0.00
2013-7-16,92,80,71,74,69,65,84,71,51,30.12,30.08,7,0,7,0.00
2013-7-17,82,78,67,71,69,64,90,74,65,30.17,29.92,12,2,14,0.22
2013-7-18,85,77,70,73,69,65,93,77,57,30.00,29.91,9,1,9,0.07
2013-7-19,94,77,69,77,70,66,92,82,53,29.94,29.63,13,0,16,0.00
2013-7-20,90,81,72,74,69,65,85,68,49,29.77,29.59,14,1,14,0.00
2013-7-21,75,70,61,65,60,54,89,73,49,30.01,29.77,11,1,11,0.00
2013-7-22,72,67,62,64,61,59,90,82,70,30.04,29.93,9,0,9,0.00
2013-7-23,70,66,63,66,63,59,92,90,86,29.92,29.53,4,0,4,0.96
2013-7-24,79,69,60,72,63,51,93,82,62,29.97,29.56,9,0,9,0.07
2013-7-25,72,64,56,60,55,49,85,72,57,30.11,29.97,3,0,6,0.00
2013-7-26,72,66,62,64,61,58,91,84,76,30.09,29.89,13,1,13,0.16
2013-7-27,80,72,62,66,63,60,92,75,57,30.01,29.92,10,1,10,0.01
2013-7-28,72,65,61,65,62,58,91,88,79,30.04,30.00,1,0,6,0.06
2013-7-29,73,66,62,65,62,59,92,88,78,30.06,29.99,5,0,10,0.48
2013-7-30,80,69,59,65,60,56,93,75,43,30.07,30.00,9,0,10,0.01
2013-7-31,79,68,57,63,58,53,89,73,48,30.12,30.03,11,1,11,0.00
2013-8-1,75,66,57,67,62,54,92,85,73,30.04,29.87,9,1,12,0.00
2013-8-2,69,65,63,66,62,61,92,91,84,29.88,29.80,9,0,9,0.45
2013-8-3,79,69,58,64,60,56,92,75,53,29.82,29.72,11,1,11,0.03
2013-8-4,76,66,56,62,57,52,92,74,54,29.83,29.73,11,0,11,0.01
2013-8-5,75,64,54,54,50,43,86,63,41,30.02,29.83,14,1,14,0.00
2013-8-6,75,61,51,59,51,45,87,72,49,30.11,30.02,9,0,9,0.00
2013-8-7,73,63,52,64,57,48,88,80,65,30.19,30.11,2,0,9,0.00
2013-8-8,73,67,62,67,62,57,91,86,79,30.12,30.00,2,0,9,0.25
2013-8-9,69,67,65,67,64,63,93,92,90,30.00,29.73,3,1,15,0.86
2013-8-10,80,71,60,67,60,51,93,71,37,29.98,29.74,3,1,15,0.01
2013-8-11,78,72,54,58,54,50,87,56,44,30.05,29.97,7,1,11,0.00
2013-8-12,78,69,55,62,59,52,89,71,50,29.99,29.89,9,0,9,1.12
2013-8-13,72,65,58,64,60,54,92,85,71,29.90,29.69,10,0,10,0.00
2013-8-14,77,67,62,65,61,58,93,82,57,29.69,29.61,13,1,13,0.00
2013-8-15,76,68,54,57,53,48,83,61,45,30.07,29.88,10,1,10,0.00
2013-8-16,74,63,53,59,55,50,89,75,53,30.16,30.06,10,0,10,0.00
2013-8-17,59,57,56,55,53,52,89,88,87,30.20,30.16,2,0,2,0.00
2013-8-18,74,64,54,64,56,51,89,78,53,30.27,30.05,1,0,6,0.00
2013-8-19,84,74,57,65,62,55,91,68,47,30.03,29.88,7,0,7,0.00
2013-8-20,83,71,61,67,62,57,89,74,55,30.06,29.93,8,0,8,0.00
2013-8-21,82,70,62,69,62,58,90,77,57,30.12,30.05,10,0,10,0.00
2013-8-22,90,78,70,70,66,62,85,68,42,29.93,29.74,14,1,14,0.00
2013-8-23,80,72,60,67,56,49,82,59,38,30.14,29.75,12,1,12,0.00
2013-8-24,76,64,51,57,51,47,84,65,39,30.30,30.14,10,0,10,0.00
2013-8-25,60,54,53,52,50,48,87,85,75,30.35,30.28,3,0,3,0.00
2013-8-26,76,66,59,66,61,55,91,83,70,30.13,29.85,2,0,10,0.21
2013-8-27,82,72,62,67,64,60,92,77,59,29.90,29.83,3,0,7,0.00
2013-8-28,76,68,62,66,63,60,92,85,73,30.00,29.87,7,1,7,0.04
2013-8-29,68,65,59,63,59,55,92,82,75,30.10,29.98,6,0,6,0.01
2013-8-30,76,66,58,65,60,54,90,82,65,30.03,29.76,9,0,9,0.00
2013-8-31,66,65,64,64,62,61,90,90,90,29.78,29.75,2,0,2,0.00
2013-9-1,81,72,66,71,67,64,92,84,70,29.90,29.75,1,0,6,0.00
2013-9-2,70,66,63,67,64,61,93,92,90,29.88,29.74,1,0,11,3.95
2013-9-3,75,70,64,69,66,62,94,89,79,29.76,29.68,9,0,9,0.33
2013-9-4,80,68,59,63,59,56,93,75,45,29.88,29.73,10,0,10,0.01
2013-9-5,66,61,50,59,55,46,90,80,59,30.12,29.84,7,0,7,0.34
2013-9-6,66,58,44,52,46,40,88,67,41,30.23,30.03,13,1,13,0.00
2013-9-7,76,61,48,62,52,45,90,74,51,30.03,29.82,7,0,7,0.00
2013-9-8,67,60,50,58,50,41,89,69,46,30.06,29.70,4,1,20,0.07
2013-9-9,67,58,42,53,48,39,88,70,47,30.20,30.06,10,1,10,0.00
2013-9-10,66,60,54,61,55,49,91,85,77,30.11,30.01,7,0,7,0.02
2013-9-11,88,72,61,76,67,58,92,83,63,30.04,29.88,10,0,17,0.77
2013-9-12,75,68,65,68,65,62,93,91,77,29.98,29.66,5,0,9,1.27
2013-9-13,66,66,65,64,64,63,93,93,93,29.67,29.58,3,0,3,0.11
2013-9-14,68,60,53,59,54,50,91,82,66,30.02,29.72,1,0,10,0.00
2013-9-15,64,57,47,56,51,44,92,81,61,30.13,30.01,2,0,11,0.01
2013-9-16,67,60,46,56,52,37,89,78,60,30.25,29.97,7,0,13,0.01
2013-9-17,66,54,39,49,43,35,90,67,45,30.41,30.26,10,1,10,0.00
2013-9-18,70,55,42,52,46,39,92,73,43,30.29,30.10,7,0,7,0.00
2013-9-19,72,57,46,54,48,43,90,74,46,30.12,30.01,2,0,9,0.01
2013-9-20,73,59,49,58,51,46,90,78,52,30.10,30.02,1,0,6,0.00
2013-9-21,64,59,55,59,56,52,92,89,79,30.02,29.76,3,1,15,0.01
2013-9-22,70,63,53,63,57,45,92,81,59,29.76,29.59,2,1,14,0.39
2013-9-23,59,53,45,45,41,38,82,64,54,29.95,29.76,15,2,15,0.00
2013-9-24,58,50,44,45,41,39,85,73,53,29.93,29.82,9,1,13,0.00
2013-9-25,62,56,45,50,46,41,86,70,58,29.98,29.86,5,0,13,0.00
2013-9-26,68,56,45,53,47,41,88,74,57,30.13,29.98,10,1,10,0.00
2013-9-27,71,60,52,57,52,49,89,75,54,30.24,30.12,5,0,5,0.00
2013-9-28,72,58,49,57,51,46,92,79,52,30.33,30.24,5,0,6,0.00
2013-9-29,63,53,46,54,48,43,92,86,64,30.27,30.13,7,0,7,0.01
2013-9-30,63,52,41,52,47,38,92,84,62,30.14,29.97,6,0,6,0.01
2013-10-1,75,58,45,57,50,42,92,77,45,29.97,29.81,6,0,6,0.01
2013-10-2,80,62,50,62,54,47,91,77,50,29.89,29.75,11,0,11,0.01
2013-10-3,74,60,48,54,50,45,90,74,44,30.06,29.89,9,0,9,0.00
2013-10-4,71,58,47,55,50,44,89,77,50,30.09,30.01,5,0,5,0.01
2013-10-5,62,56,50,52,48,44,88,73,53,30.14,30.07,5,0,5,0.00
2013-10-6,54,51,49,49,44,38,90,76,61,30.28,30.13,13,0,13,0.08
2013-10-7,64,59,52,62,56,48,93,92,88,30.19,29.79,23,1,23,0.38
2013-10-8,63,54,42,57,45,38,91,73,45,30.39,29.82,9,1,9,0.00
2013-10-9,59,43,37,44,38,34,89,83,53,30.49,30.38,4,0,5,0.01
2013-10-10,61,51,36,50,45,33,91,80,59,30.36,30.18,6,0,6,0.00
2013-10-11,68,54,45,54,48,42,91,82,55,30.18,30.11,4,0,4,0.00
2013-10-12,59,53,47,52,48,44,92,84,73,30.42,30.16,9,0,9,0.01
2013-10-13,58,51,42,48,46,39,92,82,61,30.47,30.39,5,0,5,0.00
2013-10-14,60,50,38,49,44,35,95,80,61,30.39,30.24,12,1,12,0.01
2013-10-15,65,56,52,54,50,48,89,81,64,30.28,30.20,7,0,7,0.00
2013-10-16,60,56,53,54,52,50,91,86,75,30.20,29.90,9,0,9,0.00
2013-10-17,69,59,52,58,53,49,91,82,58,29.90,29.69,7,0,7,0.00
2013-10-18,67,58,51,57,50,43,93,75,51,29.83,29.56,10,1,14,0.40
2013-10-19,51,48,45,44,41,39,81,77,73,29.87,29.82,4,0,4,0.00
2013-10-20,62,54,45,51,42,35,89,66,40,29.94,29.65,3,1,14,0.00
2013-10-21,63,54,38,47,41,34,85,62,45,30.08,29.95,12,1,12,0.00
2013-10-22,61,54,44,53,50,41,90,84,74,29.96,29.69,13,1,13,0.07
2013-10-23,54,44,37,44,38,34,92,80,55,29.76,29.59,8,0,8,0.01
2013-10-24,51,46,37,39,31,28,81,56,42,29.75,29.59,18,2,18,0.00
2013-10-25,49,42,32,35,30,26,83,63,48,30.09,29.81,12,1,12,0.00
2013-10-26,51,42,29,36,31,25,86,66,47,30.10,29.85,14,1,14,0.00
2013-10-27,55,47,37,40,36,28,87,66,48,30.01,29.77,12,1,12,0.03
2013-10-28,56,43,33,37,32,27,81,64,46,30.23,30.00,18,1,18,0.00
2013-10-29,47,37,27,29,25,21,83,64,38,30.45,30.34,7,1,7,0.00
2013-10-30,49,36,28,31,27,24,84,71,44,30.34,30.16,12,0,12,0.00
2013-10-31,56,40,28,53,36,24,92,85,76,30.24,29.76,10,0,10,0.23
2013-11-1,61,57,55,56,54,52,92,91,85,29.76,29.41,19,3,19,0.16
2013-11-2,64,54,42,52,44,39,89,73,48,29.71,29.54,2,0,11,0.01
2013-11-3,50,40,31,46,28,19,87,64,47,30.40,29.73,3,1,11,0.02
2013-11-4,41,35,26,22,20,18,75,55,40,30.70,30.41,10,1,12,0.07
2013-11-5,48,37,24,33,29,18,86,72,55,30.72,30.49,7,1,12,0.00
2013-11-6,54,42,33,47,37,29,88,82,67,30.50,29.99,12,1,13,0.00
2013-11-7,60,51,41,55,44,29,88,78,61,29.97,29.61,12,1,12,0.04
2013-11-8,47,40,30,30,26,23,79,57,44,29.99,29.76,16,1,16,0.00
2013-11-9,45,38,32,28,23,21,72,54,41,30.12,29.98,13,2,13,0.00
2013-11-10,43,39,34,39,35,27,89,86,69,30.06,29.70,7,0,7,0.03
2013-11-11,46,40,34,35,31,28,83,70,52,30.02,29.73,8,1,11,0.00
2013-11-12,43,32,27,31,18,15,71,58,49,30.11,29.81,12,1,12,0.00
2013-11-13,34,28,23,17,14,12,67,55,42,30.23,30.08,17,1,17,0.00
2013-11-14,47,36,28,30,24,13,83,60,45,30.08,29.97,13,1,13,0.00
2013-11-15,52,35,26,31,24,22,86,70,35,30.14,30.06,10,0,10,0.00
2013-11-16,52,38,32,37,30,25,87,72,49,30.33,30.16,0,0,3,0.00
2013-11-17,51,44,37,49,41,34,92,87,82,30.34,29.93,1,0,10,0.24
2013-11-18,62,53,44,55,46,36,93,78,52,29.90,29.46,19,2,19,0.38
2013-11-19,44,38,33,36,24,17,77,56,45,30.10,29.57,20,2,20,0.00
2013-11-20,40,32,24,19,16,14,72,53,36,30.62,30.21,14,1,15,0.00
2013-11-21,46,31,21,27,20,14,79,64,35,30.63,30.33,7,0,7,0.00
2013-11-22,38,34,30,34,29,20,90,80,66,30.33,29.76,4,0,4,0.04
2013-11-23,41,35,27,36,24,15,90,65,38,29.82,29.67,20,2,20,0.00
2013-11-24,28,23,19,22,7,2,77,50,42,30.01,29.68,25,4,25,0.00
2013-11-25,30,23,18,14,6,2,55,47,35,30.30,30.01,13,1,18,0.00
2013-11-26,34,30,26,29,23,12,89,75,49,30.30,30.13,10,0,10,0.07
2013-11-27,55,46,32,53,44,29,93,91,85,30.13,29.14,13,2,30,1.92
2013-11-28,38,30,19,34,17,7,86,59,38,30.38,29.28,25,2,25,0.00
2013-11-29,28,21,15,13,10,6,82,63,41,30.73,30.38,6,0,13,0.00
2013-11-30,30,21,12,21,12,6,83,69,43,30.81,30.42,6,0,6,0.00
2013-12-1,34,32,30,32,27,20,91,84,68,30.42,30.04,6,0,6,0.39
2013-12-2,36,34,33,33,32,30,92,91,91,30.04,29.90,5,0,7,0.09
2013-12-3,43,36,30,38,33,27,92,88,77,29.91,29.83,7,0,7,0.00
2013-12-4,40,32,26,28,26,23,89,78,59,30.20,29.87,11,1,11,0.01
2013-12-5,35,33,25,32,30,22,92,88,85,30.24,29.89,4,0,4,0.02
2013-12-6,44,38,34,42,36,30,93,91,82,30.11,29.82,3,0,3,0.10
2013-12-7,38,31,22,31,20,11,91,65,49,30.41,30.05,12,1,12,0.07
2013-12-8,29,24,17,16,13,10,83,65,45,30.57,30.40,4,0,5,0.00
2013-12-9,29,26,23,26,19,11,89,77,55,30.53,29.82,10,1,10,0.00
2013-12-10,33,27,22,30,24,18,95,88,85,29.90,29.71,5,0,5,0.00
2013-12-11,29,20,14,20,15,11,86,79,61,30.12,29.90,11,0,11,0.01
2013-12-12,20,14,7,16,5,0,84,69,47,30.24,29.99,6,0,6,0.00
2013-12-13,24,15,4,11,4,-6,76,63,48,30.39,29.90,0,0,1,0.00
2013-12-14,13,8,2,7,-3,-8,83,60,43,30.62,30.36,11,1,11,0.00
2013-12-15,18,14,9,14,10,5,86,85,83,30.37,29.40,16,2,16,0.00
2013-12-16,23,15,5,18,9,-3,87,77,64,30.20,29.65,15,1,15,0.00
2013-12-17,13,6,-7,7,-1,-13,84,74,62,30.30,30.01,6,0,6,0.00
2013-12-18,30,20,11,22,15,6,92,80,66,30.02,29.83,7,1,7,0.00
2013-12-19,32,25,19,25,20,16,87,80,70,30.07,29.90,10,0,10,0.00
2013-12-20,37,30,21,31,26,17,89,85,76,30.11,29.89,3,0,3,0.10
2013-12-21,36,33,32,33,31,29,91,90,89,29.94,29.82,2,0,3,0.28
2013-12-22,33,29,26,31,27,24,91,90,89,30.08,29.85,10,1,10,0.35
2013-12-23,32,30,27,30,27,24,91,91,90,30.11,29.95,5,0,5,0.00
2013-12-24,32,25,14,30,22,10,92,87,82,30.17,30.05,4,0,4,0.00
2013-12-25,18,12,7,12,6,0,85,78,72,30.55,30.17,12,1,12,0.00
2013-12-26,24,17,11,20,13,7,87,85,84,30.51,30.07,2,0,5,0.00
2013-12-27,33,20,9,26,16,5,88,84,74,30.20,30.12,12,0,12,0.06
2013-12-28,34,26,15,30,22,12,90,85,77,30.16,29.92,1,0,11,0.02
2013-12-29,33,27,20,31,24,17,91,89,87,30.00,29.51,1,0,5,0.02
2013-12-30,33,20,5,29,14,-1,90,77,63,30.17,29.50,5,0,12,0.04
2013-12-31,11,4,-2,4,-1,-7,83,77,67,30.17,30.03,4,0,4,0.00
2014-1-1,22,7,-6,10,1,-11,92,75,54,30.40,30.11,13,0,13,0.00
2014-1-2,9,-1,-6,2,-7,-11,89,76,67,30.43,29.99,13,2,13,0.00